EGXW/WTN METAR and TAF weather

Enter ICAO airport designator
Station Type Date Time Source
EGXW METAR 2019/02/23 16:50 UTC NOAA

EGXW 231650Z AUTO 19006KT 6000 HZ NCD 13/09 Q1032


Station Type Date Time Source
EGXW Decoded METAR 2019/02/23 16:50 UTC NOAA

Waddington, United Kingdom (EGXW) 53-10N 000-31W 0M
Feb 23, 2019 - 11:50 AM EST / 2019.02.23 1650 UTC
Wind: from the S (190 degrees) at 7 MPH (6 KT):0
Visibility: 3 mile(s):0
Weather: haze
Temperature: 55 F (13 C)
Dew Point: 48 F (9 C)
Relative Humidity: 76%
Pressure (altimeter): 30.47 in. Hg (1032 hPa)
ob: EGXW 231650Z AUTO 19006KT 6000 HZ NCD 13/09 Q1032
cycle: 17

Station Type Date Time Source
EGXW TAF 2019/02/23 03:42 UTC NOAA

TAF EGXW 230122Z 2303/2321 15012KT 0400 FG OVC000 PROB30
TEMPO 2303/2310 3000 BR BKN003
BECMG 2310/2312 4000 BR BKN004
BECMG 2312/2315 9999 NSW FEW010
BECMG 2318/2321 6000 HZ


Example: see airport list